createdAt,value
2022-10-25T00:02:18.836Z,9.80
2022-10-25T00:04:46.158Z,9.80
2022-10-25T00:07:13.369Z,9.90
2022-10-25T00:09:40.465Z,9.90
2022-10-25T00:12:07.657Z,9.90
2022-10-25T00:14:35.102Z,9.90
2022-10-25T00:17:04.593Z,9.90
2022-10-25T00:19:31.686Z,9.90
2022-10-25T00:21:58.744Z,9.90
2022-10-25T00:24:25.953Z,9.90
2022-10-25T00:26:52.939Z,9.90
2022-10-25T00:29:20.726Z,9.90
2022-10-25T00:31:48.960Z,9.90
2022-10-25T00:34:16.064Z,9.90
2022-10-25T00:36:42.963Z,9.90
2022-10-25T00:39:09.931Z,9.90
2022-10-25T00:41:36.939Z,9.90
2022-10-25T00:44:22.961Z,9.90
2022-10-25T00:46:50.066Z,9.90
2022-10-25T00:49:19.324Z,9.90
2022-10-25T00:52:01.022Z,9.90
2022-10-25T00:54:33.436Z,9.90
2022-10-25T00:57:02.579Z,9.80
2022-10-25T00:59:29.723Z,9.80
2022-10-25T01:01:57.558Z,9.80
2022-10-25T01:04:29.150Z,9.80
2022-10-25T01:06:56.691Z,9.80
2022-10-25T01:09:25.832Z,9.80
2022-10-25T01:11:53.014Z,9.80
2022-10-25T01:14:20.099Z,9.70
2022-10-25T01:17:05.469Z,9.80
2022-10-25T01:19:35.717Z,9.80
2022-10-25T01:22:11.823Z,9.70
2022-10-25T01:24:57.270Z,9.70
2022-10-25T01:27:24.283Z,9.70
2022-10-25T01:29:51.233Z,9.70
2022-10-25T01:32:20.835Z,9.70
2022-10-25T01:34:54.102Z,9.60
2022-10-25T01:37:41.256Z,9.60
2022-10-25T01:40:22.504Z,9.60
2022-10-25T01:42:55.145Z,9.60
2022-10-25T01:45:27.352Z,9.60
2022-10-25T01:48:17.763Z,9.60
2022-10-25T01:50:46.292Z,9.60
2022-10-25T01:53:13.807Z,9.60
2022-10-25T01:55:46.704Z,9.60
2022-10-25T01:58:26.137Z,9.60
2022-10-25T02:01:08.401Z,9.60
2022-10-25T02:03:55.899Z,9.60
2022-10-25T02:06:34.527Z,9.60
2022-10-25T02:09:18.275Z,9.60
2022-10-25T02:11:45.435Z,9.60
2022-10-25T02:14:20.304Z,9.60
2022-10-25T02:16:53.771Z,9.60
2022-10-25T02:19:23.875Z,9.60
2022-10-25T02:21:52.095Z,9.60
2022-10-25T02:24:21.596Z,9.60
2022-10-25T02:29:23.025Z,9.70
2022-10-25T02:31:50.585Z,9.70
2022-10-25T02:34:18.225Z,9.70
2022-10-25T02:36:49.767Z,9.70
2022-10-25T02:39:17.946Z,9.70
2022-10-25T02:41:47.207Z,9.70
2022-10-25T02:44:14.227Z,9.70
2022-10-25T02:46:41.339Z,9.70
2022-10-25T02:49:08.237Z,9.70
2022-10-25T02:51:35.302Z,9.70
2022-10-25T02:54:02.774Z,9.70
2022-10-25T02:56:29.947Z,9.70
2022-10-25T02:58:57.812Z,9.80
2022-10-25T03:01:25.298Z,9.80
2022-10-25T03:03:54.807Z,9.80
2022-10-25T03:06:21.889Z,9.80
2022-10-25T03:08:49.026Z,9.80
2022-10-25T03:11:17.018Z,9.80
2022-10-25T03:13:44.543Z,9.80
2022-10-25T03:16:12.173Z,9.80
2022-10-25T03:18:39.281Z,9.80
2022-10-25T03:21:06.384Z,9.90
2022-10-25T03:23:33.342Z,9.90
2022-10-25T03:26:01.102Z,9.80
2022-10-25T03:28:29.808Z,9.90
2022-10-25T03:30:57.125Z,9.90
2022-10-25T03:33:24.845Z,9.90
2022-10-25T03:35:52.613Z,9.90
2022-10-25T03:38:19.819Z,9.90
2022-10-25T03:40:46.932Z,9.90
2022-10-25T03:43:13.925Z,9.90
2022-10-25T03:45:40.936Z,9.90
2022-10-25T03:48:07.978Z,9.90
2022-10-25T03:50:36.197Z,10.00
2022-10-25T03:53:04.367Z,9.90
2022-10-25T03:55:31.750Z,9.90
2022-10-25T03:57:58.873Z,9.90
2022-10-25T04:00:26.016Z,9.90
2022-10-25T04:03:01.695Z,9.90
2022-10-25T04:05:31.212Z,9.90
2022-10-25T04:07:58.903Z,10.00
2022-10-25T04:10:25.828Z,10.00
2022-10-25T04:12:54.525Z,10.00
2022-10-25T04:15:22.463Z,10.00
2022-10-25T04:17:50.050Z,10.00
2022-10-25T04:20:17.498Z,10.00
2022-10-25T04:22:44.442Z,10.00
2022-10-25T04:25:11.790Z,10.10
2022-10-25T04:27:38.851Z,10.10
2022-10-25T04:30:06.062Z,10.20
2022-10-25T04:32:33.151Z,10.20
2022-10-25T04:35:00.124Z,10.20
2022-10-25T04:37:27.113Z,10.20
2022-10-25T04:39:54.044Z,10.20
2022-10-25T04:42:21.049Z,10.20
2022-10-25T04:44:48.004Z,10.20
2022-10-25T04:47:15.075Z,10.20
2022-10-25T04:49:42.096Z,10.20
2022-10-25T04:52:09.038Z,10.10
2022-10-25T04:54:36.280Z,10.10
2022-10-25T04:57:03.568Z,10.10
2022-10-25T04:59:30.539Z,10.10
2022-10-25T05:01:57.521Z,10.10
2022-10-25T05:04:24.523Z,10.10
2022-10-25T05:06:51.540Z,10.10
2022-10-25T05:09:18.999Z,10.10
2022-10-25T05:11:45.894Z,10.10
2022-10-25T05:14:12.923Z,10.10
2022-10-25T05:16:39.915Z,10.10
2022-10-25T05:19:06.872Z,10.10
2022-10-25T05:21:33.923Z,10.10
2022-10-25T05:24:03.976Z,10.10
2022-10-25T05:26:31.395Z,10.10
2022-10-25T05:28:58.501Z,10.10
2022-10-25T05:31:26.917Z,10.10
2022-10-25T05:33:54.950Z,10.20
2022-10-25T05:36:22.366Z,10.20
2022-10-25T05:38:49.489Z,10.20
2022-10-25T05:41:17.828Z,10.20
2022-10-25T05:43:45.539Z,10.20
2022-10-25T05:46:14.078Z,10.20
2022-10-25T05:48:45.758Z,10.20
2022-10-25T05:51:32.852Z,10.20
2022-10-25T05:54:02.749Z,10.20
2022-10-25T05:56:30.502Z,10.20
2022-10-25T05:58:57.585Z,10.20
2022-10-25T06:01:26.650Z,10.30
2022-10-25T06:03:55.114Z,10.30
2022-10-25T06:06:22.848Z,10.30
2022-10-25T06:08:49.985Z,10.30
2022-10-25T06:11:18.293Z,10.40
2022-10-25T06:13:45.452Z,10.30
2022-10-25T06:16:13.286Z,10.40
2022-10-25T06:18:40.371Z,10.40
2022-10-25T06:21:30.490Z,10.40
2022-10-25T06:23:58.745Z,10.40
2022-10-25T06:26:26.928Z,10.40
2022-10-25T06:28:55.120Z,10.40
2022-10-25T06:31:22.084Z,10.40
2022-10-25T06:33:49.157Z,10.50
2022-10-25T06:36:17.273Z,10.50
2022-10-25T06:38:44.538Z,10.50
2022-10-25T06:41:12.777Z,10.40
2022-10-25T06:43:40.158Z,10.50
2022-10-25T06:46:11.487Z,10.50
2022-10-25T06:48:39.151Z,10.50
2022-10-25T06:51:07.100Z,10.50
2022-10-25T06:53:34.262Z,10.50
2022-10-25T06:56:04.687Z,10.50
2022-10-25T06:58:34.271Z,10.50
2022-10-25T07:01:02.655Z,10.50
2022-10-25T07:03:34.887Z,10.50
2022-10-25T07:06:06.650Z,10.50
2022-10-25T07:08:34.618Z,10.60
2022-10-25T07:11:02.192Z,10.60
2022-10-25T07:13:30.293Z,10.60
2022-10-25T07:16:07.375Z,10.60
2022-10-25T07:18:34.771Z,10.60
2022-10-25T07:21:03.416Z,10.60
2022-10-25T07:23:30.932Z,10.70
2022-10-25T07:25:58.158Z,10.70
2022-10-25T07:28:25.656Z,10.70
2022-10-25T07:30:52.654Z,10.70
2022-10-25T07:33:20.368Z,10.70
2022-10-25T07:35:59.011Z,10.70
2022-10-25T07:38:35.097Z,10.70
2022-10-25T07:41:03.371Z,10.70
2022-10-25T07:43:32.752Z,10.70
2022-10-25T07:45:59.804Z,10.80
2022-10-25T07:48:26.905Z,10.80
2022-10-25T07:51:15.607Z,10.80
2022-10-25T07:53:44.081Z,10.80
2022-10-25T07:56:17.615Z,10.90
2022-10-25T07:58:47.851Z,10.90
2022-10-25T08:01:18.058Z,10.90
2022-10-25T08:03:45.055Z,11.00
2022-10-25T08:06:12.202Z,10.90
2022-10-25T08:08:39.068Z,11.00
2022-10-25T08:11:08.342Z,11.00
2022-10-25T08:13:36.427Z,11.00
2022-10-25T08:16:04.319Z,11.00
2022-10-25T08:18:31.491Z,11.00
2022-10-25T08:23:31.755Z,11.10
2022-10-25T08:25:59.217Z,11.10
2022-10-25T08:28:26.321Z,11.10
2022-10-25T08:30:54.698Z,11.10
2022-10-25T08:33:22.095Z,11.20
2022-10-25T08:35:49.020Z,11.20
2022-10-25T08:38:16.059Z,11.30
2022-10-25T08:40:55.561Z,11.30
2022-10-25T08:43:30.763Z,11.30
2022-10-25T08:46:00.378Z,11.30
2022-10-25T08:48:34.067Z,11.30
2022-10-25T08:51:03.711Z,11.30
2022-10-25T08:53:34.465Z,11.30
2022-10-25T08:56:17.581Z,11.30
2022-10-25T08:58:53.955Z,11.30
2022-10-25T09:01:24.134Z,11.40
2022-10-25T09:03:51.242Z,11.40
2022-10-25T09:06:27.399Z,11.50
2022-10-25T09:08:59.712Z,11.50
2022-10-25T09:11:36.027Z,11.50
2022-10-25T09:14:16.559Z,11.50
2022-10-25T09:16:55.687Z,11.50
2022-10-25T09:19:32.444Z,11.50
2022-10-25T09:22:04.111Z,11.60
2022-10-25T09:24:39.805Z,11.60
2022-10-25T09:27:08.560Z,11.60
2022-10-25T09:29:35.579Z,11.60
2022-10-25T09:32:05.349Z,11.60
2022-10-25T09:34:35.691Z,11.60
2022-10-25T09:37:06.926Z,11.60
2022-10-25T09:39:39.193Z,11.70
2022-10-25T09:42:12.759Z,11.60
2022-10-25T09:44:41.687Z,11.70
2022-10-25T09:47:20.601Z,11.70
2022-10-25T09:49:53.508Z,11.70
2022-10-25T09:52:39.288Z,11.60
2022-10-25T09:55:12.108Z,11.60
2022-10-25T09:57:42.046Z,11.60
2022-10-25T10:00:13.565Z,11.60
2022-10-25T10:02:41.474Z,11.60
2022-10-25T10:05:15.665Z,11.60
2022-10-25T10:07:42.831Z,11.70
2022-10-25T10:10:12.682Z,11.70
2022-10-25T10:12:41.632Z,11.70
2022-10-25T10:15:16.157Z,11.70
2022-10-25T10:17:44.080Z,11.60
2022-10-25T10:20:14.071Z,11.60
2022-10-25T10:25:18.132Z,11.70
2022-10-25T10:27:46.681Z,11.70
2022-10-25T10:30:30.385Z,11.70
2022-10-25T10:33:01.399Z,11.70
2022-10-25T10:35:33.193Z,11.70
2022-10-25T10:38:13.553Z,11.70
2022-10-25T10:40:41.218Z,11.80
2022-10-25T10:43:28.419Z,11.80
2022-10-25T10:46:00.719Z,11.80
2022-10-25T10:48:31.916Z,11.90
2022-10-25T10:50:59.135Z,11.90
2022-10-25T10:53:29.627Z,11.90
2022-10-25T10:55:57.451Z,11.90
2022-10-25T10:58:27.214Z,11.90
2022-10-25T11:01:04.889Z,11.90
2022-10-25T11:03:36.386Z,11.90
2022-10-25T11:06:05.186Z,12.00
2022-10-25T11:08:32.128Z,12.10
2022-10-25T11:11:14.183Z,12.10
2022-10-25T11:13:41.601Z,12.20
2022-10-25T11:16:20.268Z,12.20
2022-10-25T11:19:09.219Z,12.30
2022-10-25T11:21:51.759Z,12.30
2022-10-25T11:24:29.083Z,12.30
2022-10-25T11:26:59.134Z,12.30
2022-10-25T11:29:26.291Z,12.40
2022-10-25T11:31:59.208Z,12.30
2022-10-25T11:34:37.430Z,12.30
2022-10-25T12:09:26.832Z,12.50
2022-10-25T12:11:57.584Z,12.50
2022-10-25T12:14:29.181Z,12.50
2022-10-25T12:17:00.440Z,12.50
2022-10-25T12:19:29.067Z,12.50
2022-10-25T12:22:07.278Z,12.40
2022-10-25T12:24:37.336Z,12.40
2022-10-25T12:27:05.074Z,12.40
2022-10-25T12:29:38.714Z,12.40
2022-10-25T12:32:12.045Z,12.40
2022-10-25T12:34:39.142Z,12.40
2022-10-25T12:37:16.122Z,12.50
2022-10-25T12:39:44.074Z,12.50
2022-10-25T12:42:14.193Z,12.50
2022-10-25T12:44:47.587Z,12.50
2022-10-25T12:47:29.073Z,12.60
2022-10-25T12:49:59.104Z,12.60
2022-10-25T12:52:35.132Z,12.60
2022-10-25T12:55:17.560Z,12.60
2022-10-25T12:57:56.847Z,12.70
2022-10-25T13:00:28.602Z,12.70
2022-10-25T13:03:10.426Z,12.70
2022-10-25T13:05:40.851Z,12.70
2022-10-25T13:08:09.059Z,12.70
2022-10-25T13:10:44.020Z,12.70
2022-10-25T13:13:14.091Z,12.80
2022-10-25T13:15:45.133Z,12.80
2022-10-25T13:18:41.350Z,12.80
2022-10-25T13:21:13.066Z,12.90
2022-10-25T13:23:42.836Z,12.90
2022-10-25T13:26:17.240Z,12.90
2022-10-25T13:28:45.346Z,12.80
2022-10-25T13:31:30.194Z,12.80
2022-10-25T13:34:12.599Z,12.90
2022-10-25T13:36:52.636Z,12.80
2022-10-25T13:39:23.044Z,12.90
2022-10-25T13:41:50.391Z,12.90
2022-10-25T13:44:20.891Z,12.90
2022-10-25T13:46:48.279Z,12.80
2022-10-25T13:49:33.963Z,12.80
2022-10-25T13:52:05.414Z,12.90
2022-10-25T13:54:52.794Z,12.90
2022-10-25T13:57:38.599Z,12.90
2022-10-25T14:00:10.671Z,12.80
2022-10-25T14:02:58.040Z,12.80
2022-10-25T14:05:43.650Z,12.80
2022-10-25T14:08:15.609Z,12.80
2022-10-25T14:10:43.068Z,12.80
2022-10-25T14:13:16.404Z,12.70
2022-10-25T14:15:48.566Z,12.80
2022-10-25T14:18:18.402Z,12.80
2022-10-25T14:20:48.207Z,12.80
2022-10-25T14:23:24.133Z,12.70
2022-10-25T14:25:54.541Z,12.70
2022-10-25T14:28:26.180Z,12.70
2022-10-25T14:31:03.415Z,12.70
2022-10-25T14:33:36.658Z,12.70
2022-10-25T14:36:06.363Z,12.70
2022-10-25T14:38:36.728Z,12.70
2022-10-25T14:41:11.145Z,12.70
2022-10-25T14:43:38.736Z,12.70
2022-10-25T14:46:05.641Z,12.70
2022-10-25T14:48:33.448Z,12.70
2022-10-25T14:51:04.390Z,12.70
2022-10-25T14:53:34.582Z,12.70
2022-10-25T14:56:05.327Z,12.70
2022-10-25T14:58:38.948Z,12.70
2022-10-25T15:01:08.532Z,12.70
2022-10-25T15:03:40.309Z,12.70
2022-10-25T15:06:09.718Z,12.70
2022-10-25T15:08:38.618Z,12.70
2022-10-25T15:11:10.263Z,12.70
2022-10-25T15:13:44.951Z,12.70
2022-10-25T15:16:30.764Z,12.70
2022-10-25T15:19:08.464Z,12.70
2022-10-25T15:21:42.744Z,12.70
2022-10-25T15:24:13.923Z,12.70
2022-10-25T15:27:13.942Z,12.60
2022-10-25T15:29:41.024Z,12.60
2022-10-25T15:32:14.198Z,12.60
2022-10-25T15:34:42.208Z,12.60
2022-10-25T15:37:11.366Z,12.70
2022-10-25T15:39:40.520Z,12.60
2022-10-25T15:42:08.493Z,12.60
2022-10-25T15:44:37.600Z,12.60
2022-10-25T15:47:04.734Z,12.60
2022-10-25T15:51:59.243Z,12.60
2022-10-25T15:54:26.346Z,12.60
2022-10-25T15:56:54.877Z,12.50
2022-10-25T15:59:21.861Z,12.50
2022-10-25T16:01:51.756Z,12.50
2022-10-25T16:04:19.223Z,12.50
2022-10-25T16:06:46.655Z,12.50
2022-10-25T16:09:13.651Z,12.50
2022-10-25T16:11:44.853Z,12.50
2022-10-25T16:14:24.943Z,12.50
2022-10-25T16:16:52.001Z,12.50
2022-10-25T16:19:19.639Z,12.50
2022-10-25T16:21:46.609Z,12.50
2022-10-25T16:24:13.977Z,12.50
2022-10-25T16:26:43.448Z,12.50
2022-10-25T16:29:14.648Z,12.50
2022-10-25T16:31:41.701Z,12.50
2022-10-25T16:34:08.799Z,12.50
2022-10-25T16:36:35.799Z,12.50
2022-10-25T16:39:04.343Z,12.40
2022-10-25T16:41:31.443Z,12.40
2022-10-25T16:43:58.926Z,12.40
2022-10-25T16:46:26.224Z,12.40
2022-10-25T16:48:54.222Z,12.40
2022-10-25T16:51:25.099Z,12.40
2022-10-25T16:53:52.104Z,12.40
2022-10-25T16:56:19.206Z,12.40
2022-10-25T16:58:46.137Z,12.40
2022-10-25T17:01:22.549Z,12.40
2022-10-25T17:03:50.449Z,12.40
2022-10-25T17:06:42.902Z,12.40
2022-10-25T17:09:05.784Z,12.40
2022-10-25T17:11:32.827Z,12.40
2022-10-25T17:13:59.750Z,12.40
2022-10-25T17:16:26.784Z,12.40
2022-10-25T17:18:53.713Z,12.40
2022-10-25T17:21:23.719Z,12.40
2022-10-25T17:23:50.887Z,12.40
2022-10-25T17:26:17.804Z,12.40
2022-10-25T17:28:45.437Z,12.40
2022-10-25T17:31:13.578Z,12.40
2022-10-25T17:33:42.562Z,12.40
2022-10-25T17:36:14.106Z,12.40
2022-10-25T17:38:41.581Z,12.30
2022-10-25T17:41:08.822Z,12.30
2022-10-25T17:43:36.745Z,12.30
2022-10-25T17:46:05.384Z,12.30
2022-10-25T17:48:32.385Z,12.30
2022-10-25T17:51:03.364Z,12.30
2022-10-25T17:53:30.508Z,12.30
2022-10-25T17:55:57.440Z,12.30
2022-10-25T17:58:24.454Z,12.30
2022-10-25T18:00:54.592Z,12.30
2022-10-25T18:03:21.798Z,12.30
2022-10-25T18:05:48.863Z,12.30
2022-10-25T18:08:16.045Z,12.30
2022-10-25T18:10:42.983Z,12.20
2022-10-25T18:13:09.935Z,12.20
2022-10-25T18:15:38.377Z,12.10
2022-10-25T18:18:05.495Z,12.10
2022-10-25T18:20:32.506Z,12.00
2022-10-25T18:23:00.222Z,12.00
2022-10-25T18:25:27.256Z,12.00
2022-10-25T18:27:54.209Z,11.90
2022-10-25T18:30:21.508Z,11.90
2022-10-25T18:32:48.616Z,11.90
2022-10-25T18:35:15.759Z,11.90
2022-10-25T18:37:42.721Z,11.80
2022-10-25T18:40:10.301Z,11.80
2022-10-25T18:42:38.289Z,11.80
2022-10-25T18:45:05.766Z,11.70
2022-10-25T18:47:32.711Z,11.70
2022-10-25T18:49:59.782Z,11.70
2022-10-25T18:52:27.593Z,11.60
2022-10-25T18:54:54.593Z,11.60
2022-10-25T18:57:21.765Z,11.60
2022-10-25T18:59:48.791Z,11.60
2022-10-25T19:02:15.857Z,11.50
2022-10-25T19:04:43.164Z,11.50
2022-10-25T19:07:10.182Z,11.40
2022-10-25T19:09:37.327Z,11.50
2022-10-25T19:12:04.467Z,11.40
2022-10-25T19:14:31.589Z,11.40
2022-10-25T19:16:58.599Z,11.40
2022-10-25T19:19:25.670Z,11.30
2022-10-25T19:21:52.861Z,11.30
2022-10-25T19:24:20.019Z,11.40
2022-10-25T19:26:47.745Z,11.30
2022-10-25T19:29:14.880Z,11.30
2022-10-25T19:31:41.974Z,11.30
2022-10-25T19:34:08.946Z,11.20
2022-10-25T19:36:36.264Z,11.30
2022-10-25T19:39:04.022Z,11.20
2022-10-25T19:41:31.126Z,11.20
2022-10-25T19:43:58.302Z,11.20
2022-10-25T19:46:25.352Z,11.20
2022-10-25T19:48:52.395Z,11.20
2022-10-25T19:51:20.442Z,11.20
2022-10-25T19:53:47.820Z,11.20
2022-10-25T19:56:16.131Z,11.10
2022-10-25T19:58:43.395Z,11.10
2022-10-25T20:01:28.618Z,11.10
2022-10-25T20:03:57.515Z,11.10
2022-10-25T20:06:25.887Z,11.00
2022-10-25T20:08:53.138Z,11.00
2022-10-25T20:11:20.948Z,11.00
2022-10-25T20:13:47.957Z,11.00
2022-10-25T20:16:15.069Z,11.00
2022-10-25T20:18:42.595Z,11.00
2022-10-25T20:21:30.249Z,11.00
2022-10-25T20:23:58.537Z,11.00
2022-10-25T20:26:27.075Z,11.10
2022-10-25T20:28:57.747Z,11.10
2022-10-25T20:31:25.577Z,11.10
2022-10-25T20:33:52.764Z,11.20
2022-10-25T20:36:20.116Z,11.20
2022-10-25T20:38:47.337Z,11.20
2022-10-25T20:41:15.433Z,11.20
2022-10-25T20:43:45.741Z,11.10
2022-10-25T20:46:12.800Z,11.00
2022-10-25T20:48:39.739Z,11.00
2022-10-25T20:51:08.028Z,11.00
2022-10-25T20:53:35.821Z,11.00
2022-10-25T20:56:03.272Z,10.90
2022-10-25T20:58:30.143Z,10.90
2022-10-25T21:00:57.964Z,10.90
2022-10-25T21:03:26.375Z,10.90
2022-10-25T21:05:53.972Z,10.90
2022-10-25T21:08:23.101Z,10.80
2022-10-25T21:10:54.345Z,10.90
2022-10-25T21:13:24.752Z,10.90
2022-10-25T21:15:52.163Z,10.80
2022-10-25T21:18:19.251Z,10.80
2022-10-25T21:20:47.037Z,10.80
2022-10-25T21:23:14.365Z,10.80
2022-10-25T21:25:41.264Z,10.80
2022-10-25T21:28:08.273Z,10.80
2022-10-25T21:30:35.256Z,10.80
2022-10-25T21:33:04.413Z,10.70
2022-10-25T21:35:32.087Z,10.70
2022-10-25T21:37:59.177Z,10.70
2022-10-25T21:40:26.495Z,10.70
2022-10-25T21:42:53.415Z,10.70
2022-10-25T21:45:20.453Z,10.60
2022-10-25T21:47:47.610Z,10.70
2022-10-25T21:50:16.267Z,10.70
2022-10-25T21:52:43.715Z,10.70
2022-10-25T21:55:11.546Z,10.70
2022-10-25T21:57:39.422Z,10.70
2022-10-25T22:00:06.624Z,10.80
2022-10-25T22:02:39.828Z,10.80
2022-10-25T22:05:07.059Z,10.80
2022-10-25T22:07:34.017Z,10.80
2022-10-25T22:10:00.929Z,10.80
2022-10-25T22:12:27.883Z,10.80
2022-10-25T22:14:55.195Z,10.80
2022-10-25T22:17:23.243Z,10.80
2022-10-25T22:19:50.214Z,10.80
2022-10-25T22:22:17.109Z,10.80
2022-10-25T22:24:44.007Z,10.80
2022-10-25T22:27:11.024Z,10.90
2022-10-25T22:29:37.886Z,10.80
2022-10-25T22:32:04.974Z,10.80
2022-10-25T22:34:31.850Z,10.80
2022-10-25T22:37:01.378Z,10.80
2022-10-25T22:39:28.450Z,10.80
2022-10-25T22:41:55.910Z,10.80
2022-10-25T22:46:54.774Z,10.80
2022-10-25T22:49:21.790Z,10.70
2022-10-25T22:51:48.713Z,10.80
2022-10-25T22:54:15.636Z,10.80
2022-10-25T22:56:43.675Z,10.80
2022-10-25T22:59:17.632Z,10.80
2022-10-25T23:01:44.779Z,10.80
2022-10-25T23:04:11.672Z,10.80
2022-10-25T23:06:39.898Z,10.80
2022-10-25T23:09:10.933Z,10.80
2022-10-25T23:11:38.811Z,10.80
2022-10-25T23:14:07.532Z,10.80
2022-10-25T23:16:34.507Z,10.80
2022-10-25T23:19:02.207Z,10.80
2022-10-25T23:21:33.422Z,10.80
2022-10-25T23:24:00.478Z,10.90
2022-10-25T23:26:32.210Z,10.90
2022-10-25T23:28:59.673Z,10.90
2022-10-25T23:31:27.326Z,10.90
2022-10-25T23:33:56.642Z,10.90
2022-10-25T23:36:25.171Z,10.90
2022-10-25T23:38:52.642Z,10.90
2022-10-25T23:41:20.219Z,10.90
2022-10-25T23:43:47.228Z,10.90
2022-10-25T23:46:14.488Z,10.90
2022-10-25T23:48:41.617Z,10.90
2022-10-25T23:51:09.544Z,10.90
2022-10-25T23:53:36.723Z,11.00
2022-10-25T23:56:04.935Z,10.90
2022-10-25T23:58:31.896Z,11.00
